createdAt,value
2018-03-24T00:01:25.791Z,29.60
2018-03-24T00:03:53.254Z,29.37
2018-03-24T00:06:20.722Z,28.53
2018-03-24T00:08:48.270Z,28.97
2018-03-24T00:11:15.749Z,28.37
2018-03-24T00:13:43.985Z,27.90
2018-03-24T00:16:11.442Z,30.80
2018-03-24T00:18:38.905Z,30.43
2018-03-24T00:21:06.385Z,28.97
2018-03-24T00:23:33.945Z,28.10
2018-03-24T00:26:01.501Z,29.27
2018-03-24T00:28:28.974Z,28.53
2018-03-24T00:30:57.212Z,29.50
2018-03-24T00:33:24.667Z,28.83
2018-03-24T00:35:52.347Z,28.30
2018-03-24T00:38:19.811Z,29.20
2018-03-24T00:40:47.266Z,28.33
2018-03-24T00:43:15.508Z,29.13
2018-03-24T00:45:42.978Z,25.60
2018-03-24T00:48:10.446Z,27.53
2018-03-24T00:50:37.922Z,29.20
2018-03-24T00:53:06.498Z,27.77
2018-03-24T00:55:33.955Z,28.23
2018-03-24T00:58:02.198Z,26.40
2018-03-24T01:00:29.665Z,27.30
2018-03-24T01:02:57.145Z,26.27
2018-03-24T01:05:25.396Z,26.53
2018-03-24T01:07:52.855Z,27.50
2018-03-24T01:10:20.318Z,26.83
2018-03-24T01:12:47.783Z,26.10
2018-03-24T01:15:15.238Z,27.37
2018-03-24T01:17:42.695Z,25.20
2018-03-24T01:20:10.166Z,26.80
2018-03-24T01:22:38.387Z,25.80
2018-03-24T01:25:05.842Z,24.57
2018-03-24T01:27:33.323Z,25.27
2018-03-24T01:30:00.782Z,25.57
2018-03-24T01:32:28.252Z,24.00
2018-03-24T01:34:55.728Z,24.43
2018-03-24T01:37:23.947Z,26.50
2018-03-24T01:39:51.415Z,25.23
2018-03-24T01:42:18.887Z,24.63
2018-03-24T01:44:46.346Z,24.63
2018-03-24T01:47:13.918Z,24.80
2018-03-24T01:49:41.386Z,25.00
2018-03-24T01:52:09.603Z,24.30
2018-03-24T01:54:37.056Z,22.90
2018-03-24T01:57:04.523Z,24.37
2018-03-24T01:59:31.979Z,24.37
2018-03-24T02:01:59.449Z,23.70
2018-03-24T02:04:27.682Z,25.20
2018-03-24T02:06:55.151Z,24.87
2018-03-24T02:09:22.612Z,23.73
2018-03-24T02:11:50.144Z,23.10
2018-03-24T02:14:17.550Z,24.07
2018-03-24T02:16:45.015Z,23.33
2018-03-24T02:19:12.494Z,24.10
2018-03-24T02:21:42.555Z,24.67
2018-03-24T02:24:10.016Z,26.47
2018-03-24T02:26:38.391Z,24.13
2018-03-24T02:29:05.852Z,24.40
2018-03-24T02:31:33.323Z,23.20
2018-03-24T02:34:00.806Z,23.73
2018-03-24T02:36:28.268Z,23.20
2018-03-24T02:38:55.820Z,21.83
2018-03-24T02:41:23.296Z,23.80
2018-03-24T02:43:51.526Z,24.20
2018-03-24T02:46:18.991Z,22.67
2018-03-24T02:48:46.486Z,25.77
2018-03-24T02:51:14.711Z,23.90
2018-03-24T02:53:42.175Z,23.63
2018-03-24T02:56:09.646Z,24.13
2018-03-24T02:58:38.619Z,23.13
2018-03-24T03:01:06.088Z,22.97
2018-03-24T03:03:33.561Z,22.53
2018-03-24T03:06:01.123Z,21.73
2018-03-24T03:08:28.579Z,23.17
2018-03-24T03:10:56.055Z,24.40
2018-03-24T03:13:24.276Z,22.67
2018-03-24T03:15:52.504Z,24.33
2018-03-24T03:18:20.747Z,26.63
2018-03-24T03:20:48.203Z,23.47
2018-03-24T03:23:15.667Z,23.67
2018-03-24T03:25:43.148Z,23.37
2018-03-24T03:28:11.372Z,26.20
2018-03-24T03:30:48.744Z,24.10
2018-03-24T03:33:16.227Z,22.50
2018-03-24T03:35:43.687Z,25.07
2018-03-24T03:38:11.268Z,25.60
2018-03-24T03:40:38.731Z,21.77
2018-03-24T03:43:06.187Z,25.07
2018-03-24T03:45:33.655Z,24.00
2018-03-24T03:48:01.887Z,24.97
2018-03-24T03:50:29.347Z,22.87
2018-03-24T03:52:56.823Z,24.27
2018-03-24T03:55:24.279Z,24.97
2018-03-24T03:57:51.751Z,25.27
2018-03-24T04:00:19.996Z,23.87
2018-03-24T04:02:47.458Z,23.47
2018-03-24T04:05:16.424Z,24.80
2018-03-24T04:07:43.898Z,24.70
2018-03-24T04:10:11.373Z,22.67
2018-03-24T04:12:38.826Z,23.97
2018-03-24T04:15:06.303Z,24.23
2018-03-24T04:17:34.527Z,25.73
2018-03-24T04:20:01.991Z,25.73
2018-03-24T04:22:29.479Z,25.50
2018-03-24T04:24:56.938Z,26.87
2018-03-24T04:27:24.395Z,28.47
2018-03-24T04:29:51.869Z,27.27
2018-03-24T04:32:20.104Z,26.73
2018-03-24T04:34:47.563Z,26.73
2018-03-24T04:37:15.043Z,27.43
2018-03-24T04:39:42.595Z,27.03
2018-03-24T04:42:10.054Z,27.60
2018-03-24T04:44:37.622Z,28.80
2018-03-24T04:47:05.892Z,26.03
2018-03-24T04:49:33.360Z,27.60
2018-03-24T04:52:01.596Z,27.10
2018-03-24T04:54:29.063Z,28.53
2018-03-24T04:56:56.532Z,29.30
2018-03-24T04:59:24.002Z,26.80
2018-03-24T05:01:52.235Z,26.80
2018-03-24T05:04:19.723Z,28.37
2018-03-24T05:06:47.187Z,27.77
2018-03-24T05:09:15.410Z,26.20
2018-03-24T05:11:42.871Z,28.10
2018-03-24T05:14:10.342Z,28.40
2018-03-24T05:16:38.595Z,27.03
2018-03-24T05:19:06.058Z,28.43
2018-03-24T05:21:33.523Z,25.70
2018-03-24T05:24:00.996Z,26.00
2018-03-24T05:26:28.455Z,27.63
2018-03-24T05:28:55.949Z,30.00
2018-03-24T05:31:23.391Z,27.90
2018-03-24T05:33:50.859Z,25.83
2018-03-24T05:36:19.099Z,25.63
2018-03-24T05:38:46.570Z,28.67
2018-03-24T05:41:14.038Z,26.83
2018-03-24T05:43:41.504Z,25.10
2018-03-24T05:46:09.747Z,27.00
2018-03-24T05:48:37.285Z,26.30
2018-03-24T05:51:05.617Z,26.73
2018-03-24T05:53:33.875Z,28.00
2018-03-24T05:56:01.327Z,24.90
2018-03-24T05:58:28.806Z,28.77
2018-03-24T06:00:57.463Z,26.87
2018-03-24T06:03:24.932Z,26.97
2018-03-24T06:05:52.436Z,28.40
2018-03-24T06:08:19.895Z,28.47
2018-03-24T06:10:47.356Z,26.77
2018-03-24T06:13:14.840Z,27.90
2018-03-24T06:15:42.295Z,27.13
2018-03-24T06:18:09.758Z,29.70
2018-03-24T06:20:37.233Z,27.53
2018-03-24T06:23:04.689Z,29.73
2018-03-24T06:25:32.916Z,28.17
2018-03-24T06:28:00.387Z,27.17
2018-03-24T06:30:38.664Z,28.53
2018-03-24T06:33:06.368Z,25.70
2018-03-24T06:35:33.821Z,28.13
2018-03-24T06:38:01.297Z,25.27
2018-03-24T06:40:28.767Z,26.73
2018-03-24T06:42:56.982Z,25.80
2018-03-24T06:45:24.484Z,28.90
2018-03-24T06:47:51.954Z,25.80
2018-03-24T06:50:19.412Z,26.57
2018-03-24T06:52:47.639Z,26.80
2018-03-24T06:55:15.110Z,25.20
2018-03-24T06:57:42.571Z,26.47
2018-03-24T07:00:10.064Z,27.50
2018-03-24T07:02:38.302Z,26.03
2018-03-24T07:05:05.788Z,26.60
2018-03-24T07:07:34.163Z,24.97
2018-03-24T07:10:02.411Z,29.43
2018-03-24T07:12:29.881Z,27.00
2018-03-24T07:14:57.358Z,27.03
2018-03-24T07:17:25.604Z,26.83
2018-03-24T07:19:53.070Z,26.47
2018-03-24T07:22:20.528Z,26.47
2018-03-24T07:24:48.066Z,24.70
2018-03-24T07:27:16.248Z,24.40
2018-03-24T07:29:43.709Z,25.83
2018-03-24T07:32:11.283Z,25.07
2018-03-24T07:34:38.743Z,26.37
2018-03-24T07:37:06.215Z,25.83
2018-03-24T07:39:34.444Z,25.43
2018-03-24T07:42:01.904Z,25.57
2018-03-24T07:44:29.371Z,25.33
2018-03-24T07:46:56.855Z,25.53
2018-03-24T07:49:25.088Z,26.40
2018-03-24T07:51:52.556Z,24.90
2018-03-24T07:54:20.024Z,25.40
2018-03-24T07:56:48.283Z,25.73
2018-03-24T07:59:15.758Z,24.60
2018-03-24T08:01:43.227Z,26.10
2018-03-24T08:04:11.470Z,27.67
2018-03-24T08:06:38.936Z,25.57
2018-03-24T08:09:06.399Z,27.53
2018-03-24T08:11:33.914Z,24.87
2018-03-24T08:14:01.384Z,23.93
2018-03-24T08:16:28.860Z,23.30
2018-03-24T08:18:56.356Z,22.53
2018-03-24T08:21:24.595Z,22.40
2018-03-24T08:23:52.064Z,22.73
2018-03-24T08:26:19.527Z,24.57
2018-03-24T08:28:46.983Z,22.00
2018-03-24T08:31:14.467Z,21.50
2018-03-24T08:33:42.696Z,22.70
2018-03-24T08:36:10.156Z,22.50
2018-03-24T08:38:37.627Z,20.97
2018-03-24T08:41:05.091Z,23.87
2018-03-24T08:43:33.324Z,22.30
2018-03-24T08:46:00.800Z,21.30
2018-03-24T08:48:28.255Z,20.37
2018-03-24T08:50:55.730Z,20.23
2018-03-24T08:53:23.188Z,18.47
2018-03-24T08:55:50.642Z,19.30
2018-03-24T08:58:18.103Z,20.20
2018-03-24T09:00:45.574Z,19.67
2018-03-24T09:03:13.827Z,18.70
2018-03-24T09:05:41.289Z,20.20
2018-03-24T09:08:08.751Z,17.83
2018-03-24T09:10:36.220Z,16.33
2018-03-24T09:13:04.447Z,17.60
2018-03-24T09:15:31.908Z,19.40
2018-03-24T09:17:59.394Z,17.00
2018-03-24T09:20:26.839Z,15.10
2018-03-24T09:22:54.312Z,15.10
2018-03-24T09:25:22.555Z,14.10
2018-03-24T09:27:50.012Z,14.57
2018-03-24T09:30:18.115Z,15.40
2018-03-24T09:32:45.591Z,14.33
2018-03-24T09:35:13.059Z,14.80
2018-03-24T09:37:40.532Z,14.73
2018-03-24T09:40:07.991Z,13.90
2018-03-24T09:42:35.457Z,12.57
2018-03-24T09:45:02.931Z,13.00
2018-03-24T09:47:30.740Z,13.57
2018-03-24T09:49:58.151Z,14.10
2018-03-24T09:52:25.627Z,15.53
2018-03-24T09:54:53.090Z,14.23
2018-03-24T09:57:21.326Z,15.50
2018-03-24T09:59:48.795Z,14.20
2018-03-24T10:02:16.257Z,13.60
2018-03-24T10:04:43.711Z,14.80
2018-03-24T10:07:11.192Z,13.50
2018-03-24T10:09:39.884Z,13.57
2018-03-24T10:12:07.368Z,14.17
2018-03-24T10:14:34.855Z,14.53
2018-03-24T10:17:02.319Z,14.50
2018-03-24T10:19:29.771Z,12.83
2018-03-24T10:22:03.922Z,13.93
2018-03-24T10:24:32.159Z,15.53
2018-03-24T10:26:59.690Z,14.23
2018-03-24T10:29:27.393Z,13.80
2018-03-24T10:31:54.854Z,14.70
2018-03-24T10:34:22.320Z,15.07
2018-03-24T10:36:49.796Z,14.97
2018-03-24T10:39:18.032Z,14.53
2018-03-24T10:41:45.503Z,15.33
2018-03-24T10:44:12.987Z,15.20
2018-03-24T10:46:41.220Z,14.17
2018-03-24T10:49:08.698Z,14.77
2018-03-24T10:51:36.158Z,14.70
2018-03-24T10:54:04.394Z,14.67
2018-03-24T10:56:31.883Z,15.00
2018-03-24T10:58:59.528Z,14.40
2018-03-24T11:01:27.001Z,13.53
2018-03-24T11:03:55.267Z,14.90
2018-03-24T11:06:22.738Z,14.93
2018-03-24T11:08:50.199Z,13.70
2018-03-24T11:11:18.488Z,15.00
2018-03-24T11:13:45.927Z,13.43
2018-03-24T11:16:13.399Z,15.20
2018-03-24T11:18:41.643Z,14.10
2018-03-24T11:21:09.116Z,14.77
2018-03-24T11:23:36.638Z,14.30
2018-03-24T11:26:04.996Z,13.90
2018-03-24T11:28:32.460Z,13.57
2018-03-24T11:30:59.947Z,13.23
2018-03-24T11:33:27.763Z,13.03
2018-03-24T11:35:55.230Z,13.37
2018-03-24T11:38:22.699Z,15.10
2018-03-24T11:40:52.464Z,12.84
2018-03-24T11:43:20.715Z,13.00
2018-03-24T11:45:48.186Z,12.67
2018-03-24T11:48:15.655Z,13.00
2018-03-24T11:50:43.895Z,12.07
2018-03-24T11:53:11.360Z,12.10
2018-03-24T11:55:38.998Z,12.30
2018-03-24T11:58:06.487Z,10.73
2018-03-24T12:00:34.055Z,11.90
2018-03-24T12:03:01.543Z,11.50
2018-03-24T12:05:29.016Z,11.27
2018-03-24T12:07:56.890Z,11.20
2018-03-24T12:10:24.372Z,12.53
2018-03-24T12:12:51.847Z,12.57
2018-03-24T12:15:19.324Z,13.97
2018-03-24T12:17:47.564Z,13.23
2018-03-24T12:20:15.035Z,14.27
2018-03-24T12:22:43.295Z,14.37
2018-03-24T12:25:10.791Z,15.47
2018-03-24T12:27:39.047Z,14.27
2018-03-24T12:30:06.527Z,13.97
2018-03-24T12:32:33.999Z,14.30
2018-03-24T12:35:01.467Z,14.83
2018-03-24T12:37:28.951Z,13.43
2018-03-24T12:39:57.311Z,13.00
2018-03-24T12:42:24.774Z,12.50
2018-03-24T12:44:52.242Z,14.23
2018-03-24T12:47:19.720Z,14.47
2018-03-24T12:49:47.190Z,13.40
2018-03-24T12:52:15.447Z,14.23
2018-03-24T12:54:42.914Z,12.60
2018-03-24T12:57:10.375Z,13.27
2018-03-24T12:59:38.648Z,12.70
2018-03-24T13:02:06.152Z,12.83
2018-03-24T13:04:33.628Z,13.30
2018-03-24T13:07:01.117Z,13.00
2018-03-24T13:09:28.679Z,11.33
2018-03-24T13:11:56.138Z,14.30
2018-03-24T13:14:24.385Z,12.13
2018-03-24T13:16:51.852Z,12.43
2018-03-24T13:19:19.355Z,12.00
2018-03-24T13:21:46.835Z,13.47
2018-03-24T13:24:14.298Z,12.27
2018-03-24T13:26:41.759Z,13.10
2018-03-24T13:29:10.016Z,12.67
2018-03-24T13:31:37.486Z,11.37
2018-03-24T13:34:04.955Z,13.17
2018-03-24T13:36:32.439Z,13.40
2018-03-24T13:38:59.899Z,12.03
2018-03-24T13:41:28.165Z,12.30
2018-03-24T13:43:56.432Z,11.57
2018-03-24T13:46:23.895Z,11.90
2018-03-24T13:48:51.406Z,12.20
2018-03-24T13:51:19.607Z,11.90
2018-03-24T13:53:47.066Z,12.30
2018-03-24T13:56:14.544Z,11.73
2018-03-24T13:58:42.045Z,11.43
2018-03-24T14:01:09.524Z,12.20
2018-03-24T14:03:37.014Z,12.43
2018-03-24T14:06:04.486Z,12.53
2018-03-24T14:08:32.714Z,12.50
2018-03-24T14:11:00.190Z,12.33
2018-03-24T14:13:27.680Z,13.57
2018-03-24T14:15:55.919Z,13.73
2018-03-24T14:18:23.375Z,12.03
2018-03-24T14:20:50.853Z,14.13
2018-03-24T14:23:18.324Z,11.00
2018-03-24T14:25:46.558Z,12.80
2018-03-24T14:28:14.099Z,15.30
2018-03-24T14:30:41.586Z,13.23
2018-03-24T14:33:09.062Z,13.53
2018-03-24T14:35:37.312Z,13.60
2018-03-24T14:38:04.787Z,12.87
2018-03-24T14:40:32.248Z,12.83
2018-03-24T14:42:59.751Z,10.23
2018-03-24T14:45:27.227Z,12.90
2018-03-24T14:47:54.698Z,10.37
2018-03-24T14:50:22.172Z,10.90
2018-03-24T14:52:50.256Z,11.10
2018-03-24T14:55:18.592Z,10.93
2018-03-24T14:57:46.063Z,11.90
2018-03-24T15:00:13.535Z,10.23
2018-03-24T15:02:41.064Z,11.40
2018-03-24T15:05:08.535Z,10.63
2018-03-24T15:07:35.998Z,11.10
2018-03-24T15:10:03.896Z,10.40
2018-03-24T15:12:32.159Z,10.83
2018-03-24T15:14:59.607Z,10.87
2018-03-24T15:17:27.087Z,12.13
2018-03-24T15:19:54.555Z,12.40
2018-03-24T15:22:22.025Z,12.97
2018-03-24T15:24:50.846Z,14.30
2018-03-24T15:27:18.317Z,13.07
2018-03-24T15:29:57.695Z,13.10
2018-03-24T15:32:48.971Z,14.17
2018-03-24T15:35:37.264Z,13.23
2018-03-24T15:38:04.734Z,12.97
2018-03-24T15:40:32.192Z,14.83
2018-03-24T15:42:59.682Z,13.50
2018-03-24T15:45:27.200Z,14.10
2018-03-24T15:47:55.443Z,14.90
2018-03-24T15:50:23.690Z,14.20
2018-03-24T15:52:51.188Z,13.37
2018-03-24T15:55:18.653Z,13.30
2018-03-24T15:57:46.134Z,13.63
2018-03-24T16:00:13.768Z,14.10
2018-03-24T16:02:41.241Z,14.80
2018-03-24T16:05:08.724Z,12.33
2018-03-24T16:07:36.965Z,14.37
2018-03-24T16:10:04.441Z,14.20
2018-03-24T16:12:31.911Z,13.20
2018-03-24T16:14:59.818Z,13.60
2018-03-24T16:17:27.410Z,13.00
2018-03-24T16:19:55.817Z,15.10
2018-03-24T16:22:23.314Z,14.73
2018-03-24T16:24:51.554Z,16.10
2018-03-24T16:27:19.040Z,14.70
2018-03-24T16:29:47.295Z,15.07
2018-03-24T16:32:14.770Z,15.87
2018-03-24T16:34:43.016Z,14.40
2018-03-24T16:37:10.519Z,13.60
2018-03-24T16:39:37.989Z,14.53
2018-03-24T16:42:05.456Z,14.53
2018-03-24T16:44:32.945Z,15.63
2018-03-24T16:47:00.418Z,15.57
2018-03-24T16:49:27.890Z,15.07
2018-03-24T16:51:56.135Z,16.67
2018-03-24T16:56:57.632Z,15.83
2018-03-24T16:59:25.858Z,16.13
2018-03-24T17:01:53.332Z,16.70
2018-03-24T17:04:20.911Z,18.00
2018-03-24T17:06:48.343Z,19.03
2018-03-24T17:09:15.811Z,18.20
2018-03-24T17:11:43.345Z,18.07
2018-03-24T17:14:12.222Z,19.20
2018-03-24T17:16:39.683Z,17.00
2018-03-24T17:19:07.163Z,16.77
2018-03-24T17:21:34.638Z,17.63
2018-03-24T17:24:02.112Z,17.97
2018-03-24T17:26:30.363Z,16.57
2018-03-24T17:28:57.855Z,17.47
2018-03-24T17:31:26.079Z,18.00
2018-03-24T17:33:53.587Z,16.13
2018-03-24T17:36:21.078Z,16.50
2018-03-24T17:38:48.553Z,15.70
2018-03-24T17:41:16.029Z,16.40
2018-03-24T17:43:43.590Z,16.33
2018-03-24T17:46:11.058Z,15.80
2018-03-24T17:48:39.278Z,15.10
2018-03-24T17:51:06.763Z,15.03
2018-03-24T17:53:34.235Z,17.27
2018-03-24T17:56:01.699Z,16.27
2018-03-24T17:58:29.251Z,15.90
2018-03-24T18:00:56.712Z,16.03
2018-03-24T18:03:24.179Z,14.80
2018-03-24T18:05:52.419Z,15.77
2018-03-24T18:08:19.894Z,17.13
2018-03-24T18:10:47.346Z,15.70
2018-03-24T18:13:14.862Z,15.30
2018-03-24T18:15:43.975Z,14.90
2018-03-24T18:18:11.433Z,15.33
2018-03-24T18:20:38.902Z,14.90
2018-03-24T18:23:06.359Z,17.13
2018-03-24T18:25:33.819Z,16.20
2018-03-24T18:28:01.323Z,16.60
2018-03-24T18:30:28.830Z,14.90
2018-03-24T18:32:56.286Z,15.30
2018-03-24T18:35:23.874Z,16.90
2018-03-24T18:37:52.094Z,15.67
2018-03-24T18:40:19.594Z,16.30
2018-03-24T18:42:47.104Z,14.90
2018-03-24T18:45:14.561Z,16.30
2018-03-24T18:47:42.032Z,17.53
2018-03-24T18:50:09.524Z,18.07
2018-03-24T18:52:36.980Z,16.70
2018-03-24T18:55:04.434Z,17.00
2018-03-24T18:57:31.910Z,15.70
2018-03-24T19:00:00.143Z,15.73
2018-03-24T19:02:27.623Z,17.03
2018-03-24T19:04:55.091Z,15.60
2018-03-24T19:07:23.342Z,16.60
2018-03-24T19:09:51.857Z,16.33
2018-03-24T19:12:20.102Z,16.50
2018-03-24T19:14:47.654Z,18.07
2018-03-24T19:17:15.128Z,17.57
2018-03-24T19:19:42.638Z,17.00
2018-03-24T19:22:10.101Z,16.63
2018-03-24T19:24:38.567Z,15.90
2018-03-24T19:27:06.051Z,17.50
2018-03-24T19:29:33.512Z,20.47
2018-03-24T19:32:00.975Z,17.63
2018-03-24T19:34:28.447Z,17.90
2018-03-24T19:36:55.912Z,16.63
2018-03-24T19:39:23.376Z,17.13
2018-03-24T19:41:50.863Z,16.63
2018-03-24T19:44:18.326Z,15.80
2018-03-24T19:46:45.796Z,15.90
2018-03-24T19:49:13.298Z,17.83
2018-03-24T19:51:40.812Z,17.17
2018-03-24T19:54:08.303Z,17.30
2018-03-24T19:56:35.779Z,17.60
2018-03-24T19:59:04.008Z,17.10
2018-03-24T20:01:31.463Z,17.53
2018-03-24T20:03:58.960Z,17.47
2018-03-24T20:06:26.424Z,17.50
2018-03-24T20:08:54.663Z,17.27
2018-03-24T20:11:22.139Z,18.50
2018-03-24T20:13:49.594Z,17.53
2018-03-24T20:16:17.059Z,18.90
2018-03-24T20:18:44.535Z,21.10
2018-03-24T20:21:12.763Z,17.63
2018-03-24T20:23:40.227Z,18.70
2018-03-24T20:26:07.709Z,19.23
2018-03-24T20:28:35.842Z,19.67
2018-03-24T20:31:03.299Z,19.33
2018-03-24T20:33:30.780Z,19.30
2018-03-24T20:35:59.025Z,19.80
2018-03-24T20:38:26.527Z,22.03
2018-03-24T20:40:53.999Z,21.60
2018-03-24T20:43:22.218Z,21.90
2018-03-24T20:45:49.695Z,22.00
2018-03-24T20:48:17.268Z,20.37
2018-03-24T20:50:44.734Z,23.70
2018-03-24T20:53:12.199Z,22.13
2018-03-24T20:55:40.443Z,20.47
2018-03-24T20:58:07.894Z,19.70
2018-03-24T21:00:35.355Z,20.57
2018-03-24T21:03:02.844Z,19.30
2018-03-24T21:05:31.059Z,20.63
2018-03-24T21:07:58.547Z,20.60
2018-03-24T21:10:26.015Z,19.60
2018-03-24T21:12:54.095Z,18.77
2018-03-24T21:15:21.571Z,17.93
2018-03-24T21:17:49.824Z,19.83
2018-03-24T21:20:17.281Z,21.67
2018-03-24T21:22:44.752Z,20.53
2018-03-24T21:25:12.991Z,19.87
2018-03-24T21:27:40.475Z,20.17
2018-03-24T21:30:07.964Z,20.53
2018-03-24T21:32:35.640Z,20.80
2018-03-24T21:35:03.111Z,19.20
2018-03-24T21:37:30.582Z,20.13
2018-03-24T21:39:58.042Z,20.50
2018-03-24T21:42:25.507Z,18.40
2018-03-24T21:44:53.799Z,17.47
2018-03-24T21:47:21.254Z,19.53
2018-03-24T21:49:48.716Z,19.57
2018-03-24T21:52:16.972Z,20.50
2018-03-24T21:54:44.457Z,19.57
2018-03-24T21:57:12.701Z,18.80
2018-03-24T21:59:40.167Z,17.50
2018-03-24T22:02:07.631Z,18.23
2018-03-24T22:04:35.107Z,17.23
2018-03-24T22:07:03.338Z,17.50
2018-03-24T22:09:30.807Z,19.03
2018-03-24T22:11:58.892Z,20.73
2018-03-24T22:14:26.353Z,18.23
2018-03-24T22:16:54.599Z,18.43
2018-03-24T22:19:22.075Z,18.50
2018-03-24T22:21:49.692Z,18.17
2018-03-24T22:24:17.156Z,17.60
2018-03-24T22:26:44.622Z,21.67
2018-03-24T22:29:12.086Z,19.93
2018-03-24T22:31:39.550Z,19.90
2018-03-24T22:34:07.014Z,19.93
2018-03-24T22:36:34.490Z,19.83
2018-03-24T22:39:02.712Z,20.60
2018-03-24T22:41:30.194Z,21.20
2018-03-24T22:43:58.479Z,22.23
2018-03-24T22:46:25.956Z,22.27
2018-03-24T22:48:54.195Z,22.90
2018-03-24T22:51:21.655Z,22.10
2018-03-24T22:53:49.106Z,26.80
2018-03-24T22:56:16.620Z,24.97
2018-03-24T22:58:44.083Z,24.70
2018-03-24T23:01:11.554Z,24.17
2018-03-24T23:03:39.027Z,25.60
2018-03-24T23:06:07.080Z,26.70
2018-03-24T23:08:34.542Z,26.83
2018-03-24T23:11:02.027Z,26.17
2018-03-24T23:13:29.485Z,28.20
2018-03-24T23:15:56.948Z,28.10
2018-03-24T23:18:24.431Z,30.50
2018-03-24T23:20:52.655Z,28.27
2018-03-24T23:23:20.115Z,28.87
2018-03-24T23:25:47.583Z,28.60
2018-03-24T23:28:15.046Z,30.43
2018-03-24T23:30:43.272Z,30.20
2018-03-24T23:33:10.731Z,29.73
2018-03-24T23:35:38.958Z,30.13
2018-03-24T23:38:07.178Z,31.47
2018-03-24T23:40:34.655Z,31.50
2018-03-24T23:43:02.117Z,33.00
2018-03-24T23:45:29.564Z,34.93
2018-03-24T23:47:57.598Z,33.37
2018-03-24T23:50:25.822Z,31.57
2018-03-24T23:52:53.274Z,33.27
2018-03-24T23:55:20.815Z,34.80
2018-03-24T23:57:48.272Z,34.57
